Аэропорт: Адлер. Сочи

ICAO: URSS

METAR:
2020-08-13 10:30:00
URSS 131030Z 27004MPS 9999 FEW040CB 28/20 Q1011 R02/010070 R06/010070 NOSIG RMK R06/30005G09MPS MT OBSC QFE757
METAR:
2020-08-13 07:57:00
TAF URSS 130757Z 1309/1409 23003G08MPS 9999 FEW030TCU BECMG 1310/1312 28004G09MPS FEW030CB TEMPO 1312/1315 29007G12MPS BECMG 1315/1316 30004G09MPS BECMG 1318/1320 05003G08MPS NSC BECMG 1323/1401 SCT030CB BECMG 1405/1406 18003G08MPS FEW030TCU